RYR5GE EDSB-LDZD
Flight info
| Callsign | RYR5GE |
|---|---|
| Flight time | 1h 9m |
| Altitude | 19000 |
| Route | STR1Y STR R7 LUPEN/N0419F230 Y711 NATOR/N0457F350 DCT TRA DCT GAMSA N871 MADEB M738 NATAG DCT LORLO DCT BORMI DCT AKADO DCT IXONA DCT LOS |
| Aircraft | B738/M-SDE2E3FGHIRWXY/LB1 |
Departure
| Time | 2026-04-30 21:40 |
|---|---|
| Airport | Karlsruhe Baden-Baden Airport (EDSB) |
Arrival
| Time | 2026-04-30 22:49 |
|---|---|
| Airport | Zadar Airport (LDZD) |
| Time | Latitude | Longitude | Altitude | Speed | Heading |
|---|---|---|---|---|---|
| 2026-04-30 21:00 | 48.78217 | 8.08967 | 411 ft | 0 kts | 159° |
| 2026-04-30 21:29 | 48.78227 | 8.08961 | 411 ft | 4 kts | 155° |
| 2026-04-30 21:29 | 48.78273 | 8.08929 | 405 ft | 1 kts | 212° |
| 2026-04-30 21:32 | 48.78272 | 8.08928 | 405 ft | 1 kts | 212° |
| 2026-04-30 21:33 | 48.78244 | 8.08900 | 411 ft | 6 kts | 219° |
| 2026-04-30 21:33 | 48.78257 | 8.08776 | 410 ft | 6 kts | 299° |
| 2026-04-30 21:33 | 48.78278 | 8.08718 | 411 ft | 6 kts | 299° |
| 2026-04-30 21:34 | 48.78273 | 8.08661 | 408 ft | 6 kts | 217° |
| 2026-04-30 21:34 | 48.78187 | 8.08578 | 408 ft | 11 kts | 213° |
| 2026-04-30 21:34 | 48.78106 | 8.08504 | 411 ft | 15 kts | 211° |
| 2026-04-30 21:35 | 48.78017 | 8.08420 | 408 ft | 15 kts | 212° |
| 2026-04-30 21:35 | 48.77929 | 8.08338 | 411 ft | 16 kts | 212° |
| 2026-04-30 21:35 | 48.77831 | 8.08246 | 411 ft | 18 kts | 211° |
| 2026-04-30 21:35 | 48.77719 | 8.08140 | 411 ft | 20 kts | 211° |
| 2026-04-30 21:36 | 48.77596 | 8.08026 | 408 ft | 21 kts | 212° |
| 2026-04-30 21:36 | 48.77476 | 8.07914 | 410 ft | 20 kts | 212° |
| 2026-04-30 21:37 | 48.77138 | 8.07597 | 411 ft | 18 kts | 212° |
| 2026-04-30 21:37 | 48.77033 | 8.07498 | 409 ft | 17 kts | 212° |
| 2026-04-30 21:37 | 48.76931 | 8.07403 | 411 ft | 17 kts | 212° |
| 2026-04-30 21:37 | 48.76844 | 8.07320 | 411 ft | 12 kts | 211° |
| 2026-04-30 21:38 | 48.76775 | 8.07257 | 411 ft | 11 kts | 211° |
| 2026-04-30 21:38 | 48.76728 | 8.07171 | 411 ft | 11 kts | 266° |
| 2026-04-30 21:38 | 48.76762 | 8.07069 | 411 ft | 11 kts | 303° |
| 2026-04-30 21:38 | 48.76800 | 8.07006 | 411 ft | 7 kts | 337° |
| 2026-04-30 21:39 | 48.76842 | 8.07026 | 408 ft | 7 kts | 30° |
| 2026-04-30 21:39 | 48.76989 | 8.07164 | 410 ft | 57 kts | 31° |
| 2026-04-30 21:39 | 48.77528 | 8.07669 | 411 ft | 123 kts | 32° |
| 2026-04-30 21:39 | 48.78412 | 8.08496 | 474 ft | 170 kts | 30° |
| 2026-04-30 21:40 | 48.79384 | 8.09437 | 1245 ft | 164 kts | 34° |
| 2026-04-30 21:40 | 48.80356 | 8.10402 | 1981 ft | 171 kts | 38° |
| 2026-04-30 21:40 | 48.81506 | 8.11155 | 2470 ft | 202 kts | 13° |
| 2026-04-30 21:40 | 48.82993 | 8.10615 | 2687 ft | 242 kts | 329° |
| 2026-04-30 21:41 | 48.84090 | 8.08525 | 2868 ft | 270 kts | 287° |
| 2026-04-30 21:41 | 48.84254 | 8.05651 | 3276 ft | 280 kts | 255° |
| 2026-04-30 21:41 | 48.83515 | 8.02962 | 4003 ft | 275 kts | 226° |
| 2026-04-30 21:41 | 48.82143 | 8.01013 | 4889 ft | 271 kts | 214° |
| 2026-04-30 21:42 | 48.80648 | 7.99230 | 5680 ft | 276 kts | 216° |
| 2026-04-30 21:42 | 48.79145 | 7.97331 | 6372 ft | 285 kts | 218° |
| 2026-04-30 21:42 | 48.77659 | 7.95359 | 7280 ft | 283 kts | 219° |
| 2026-04-30 21:42 | 48.76178 | 7.93365 | 8122 ft | 284 kts | 219° |
| 2026-04-30 21:43 | 48.74700 | 7.91342 | 8859 ft | 290 kts | 220° |
| 2026-04-30 21:43 | 48.73218 | 7.89283 | 9562 ft | 296 kts | 220° |
| 2026-04-30 21:43 | 48.71694 | 7.87109 | 10214 ft | 304 kts | 222° |
| 2026-04-30 21:43 | 48.70134 | 7.84913 | 10834 ft | 312 kts | 220° |
| 2026-04-30 21:44 | 48.68492 | 7.82611 | 11066 ft | 333 kts | 221° |
| 2026-04-30 21:44 | 48.66750 | 7.80134 | 11325 ft | 352 kts | 221° |
| 2026-04-30 21:44 | 48.64920 | 7.77502 | 11479 ft | 373 kts | 222° |
| 2026-04-30 21:44 | 48.62999 | 7.74760 | 11799 ft | 387 kts | 221° |
| 2026-04-30 21:45 | 48.61017 | 7.71940 | 12322 ft | 393 kts | 221° |
| 2026-04-30 21:45 | 48.59008 | 7.69111 | 12978 ft | 396 kts | 221° |
| 2026-04-30 21:45 | 48.56952 | 7.66318 | 13575 ft | 399 kts | 216° |
| 2026-04-30 21:45 | 48.54505 | 7.64403 | 14116 ft | 399 kts | 193° |
| 2026-04-30 21:46 | 48.51762 | 7.63946 | 14688 ft | 397 kts | 174° |
| 2026-04-30 21:46 | 48.49083 | 7.64830 | 15232 ft | 396 kts | 155° |
| 2026-04-30 21:46 | 48.46715 | 7.66915 | 15761 ft | 395 kts | 139° |
| 2026-04-30 21:46 | 48.44874 | 7.69970 | 16287 ft | 395 kts | 122° |
| 2026-04-30 21:47 | 48.43378 | 7.73454 | 16840 ft | 398 kts | 121° |
| 2026-04-30 21:47 | 48.41850 | 7.76944 | 17346 ft | 402 kts | 122° |
| 2026-04-30 21:47 | 48.40243 | 7.80422 | 17899 ft | 405 kts | 123° |
| 2026-04-30 21:47 | 48.38616 | 7.83893 | 18485 ft | 406 kts | 121° |
| 2026-04-30 21:48 | 48.36970 | 7.87403 | 18822 ft | 414 kts | 122° |
| 2026-04-30 21:48 | 48.35346 | 7.90920 | 19215 ft | 417 kts | 121° |
| 2026-04-30 21:48 | 48.33742 | 7.94566 | 19734 ft | 418 kts | 121° |
| 2026-04-30 21:48 | 48.32156 | 7.98233 | 20227 ft | 420 kts | 120° |
| 2026-04-30 21:49 | 48.30561 | 8.01917 | 20687 ft | 422 kts | 121° |
| 2026-04-30 21:49 | 48.28947 | 8.05622 | 21133 ft | 425 kts | 121° |
| 2026-04-30 21:49 | 48.27318 | 8.09337 | 21574 ft | 428 kts | 121° |
| 2026-04-30 21:49 | 48.25674 | 8.13068 | 22017 ft | 430 kts | 121° |
| 2026-04-30 21:50 | 48.24013 | 8.16816 | 22434 ft | 432 kts | 121° |
| 2026-04-30 21:50 | 48.22338 | 8.20566 | 22859 ft | 434 kts | 120° |
| 2026-04-30 21:50 | 48.20721 | 8.24389 | 23326 ft | 434 kts | 119° |
| 2026-04-30 21:50 | 48.19132 | 8.28248 | 23737 ft | 436 kts | 119° |
| 2026-04-30 21:51 | 48.17542 | 8.32134 | 24075 ft | 439 kts | 119° |
| 2026-04-30 21:51 | 48.15935 | 8.36048 | 24411 ft | 441 kts | 119° |
| 2026-04-30 21:51 | 48.14320 | 8.39953 | 24767 ft | 443 kts | 119° |
| 2026-04-30 21:51 | 48.12693 | 8.43862 | 25101 ft | 444 kts | 119° |
| 2026-04-30 21:52 | 48.11050 | 8.47787 | 25433 ft | 446 kts | 119° |
| 2026-04-30 21:52 | 48.09402 | 8.51714 | 25750 ft | 447 kts | 120° |
| 2026-04-30 21:52 | 48.07739 | 8.55667 | 26025 ft | 451 kts | 119° |
| 2026-04-30 21:52 | 48.06057 | 8.59656 | 26318 ft | 453 kts | 119° |
| 2026-04-30 21:53 | 48.04375 | 8.63640 | 26641 ft | 454 kts | 119° |
| 2026-04-30 21:53 | 48.02688 | 8.67629 | 26930 ft | 455 kts | 119° |
| 2026-04-30 21:53 | 48.00987 | 8.71644 | 27194 ft | 457 kts | 119° |
| 2026-04-30 21:53 | 47.99282 | 8.75665 | 27467 ft | 459 kts | 119° |
| 2026-04-30 21:54 | 47.97588 | 8.79654 | 27741 ft | 461 kts | 119° |
| 2026-04-30 21:54 | 47.95870 | 8.83692 | 28100 ft | 460 kts | 119° |
| 2026-04-30 21:54 | 47.94156 | 8.87715 | 28538 ft | 458 kts | 119° |
| 2026-04-30 21:54 | 47.92446 | 8.91721 | 28964 ft | 456 kts | 119° |
| 2026-04-30 21:55 | 47.90744 | 8.95702 | 29438 ft | 453 kts | 118° |
| 2026-04-30 21:55 | 47.89056 | 8.99646 | 29918 ft | 450 kts | 118° |
| 2026-04-30 21:55 | 47.87374 | 9.03572 | 30320 ft | 449 kts | 118° |
| 2026-04-30 21:55 | 47.85693 | 9.07490 | 30589 ft | 450 kts | 118° |
| 2026-04-30 21:56 | 47.84002 | 9.11431 | 30803 ft | 452 kts | 118° |
| 2026-04-30 21:56 | 47.82314 | 9.15356 | 31086 ft | 451 kts | 118° |
| 2026-04-30 21:56 | 47.80623 | 9.19281 | 31411 ft | 450 kts | 118° |
| 2026-04-30 21:56 | 47.78934 | 9.23193 | 31710 ft | 449 kts | 118° |
| 2026-04-30 21:57 | 47.77246 | 9.27099 | 31973 ft | 449 kts | 118° |
| 2026-04-30 21:57 | 47.75570 | 9.30971 | 32244 ft | 449 kts | 117° |
| 2026-04-30 21:57 | 47.73879 | 9.34872 | 32568 ft | 448 kts | 117° |
| 2026-04-30 21:57 | 47.72196 | 9.38750 | 32870 ft | 447 kts | 117° |
| 2026-04-30 21:58 | 47.70511 | 9.42627 | 33098 ft | 447 kts | 117° |
| 2026-04-30 21:58 | 47.68823 | 9.46507 | 33339 ft | 447 kts | 117° |
| 2026-04-30 21:58 | 47.67132 | 9.50387 | 33620 ft | 447 kts | 117° |
| 2026-04-30 21:58 | 47.65443 | 9.54258 | 33892 ft | 446 kts | 117° |
| 2026-04-30 21:59 | 47.63756 | 9.58116 | 34141 ft | 446 kts | 117° |
| 2026-04-30 21:59 | 47.62071 | 9.61968 | 34360 ft | 446 kts | 117° |
| 2026-04-30 21:59 | 47.60375 | 9.65837 | 34566 ft | 446 kts | 117° |
| 2026-04-30 22:00 | 47.56990 | 9.73545 | 34969 ft | 447 kts | 117° |
| 2026-04-30 22:00 | 47.53595 | 9.81253 | 35280 ft | 448 kts | 117° |
| 2026-04-30 22:00 | 47.51885 | 9.85130 | 35277 ft | 450 kts | 117° |
| 2026-04-30 22:01 | 47.48483 | 9.92817 | 35276 ft | 447 kts | 117° |
| 2026-04-30 22:01 | 47.45084 | 10.00478 | 35279 ft | 444 kts | 117° |
| 2026-04-30 22:02 | 47.41693 | 10.08111 | 35274 ft | 443 kts | 117° |
| 2026-04-30 22:02 | 47.38306 | 10.15704 | 35283 ft | 442 kts | 117° |
| 2026-04-30 22:03 | 47.34912 | 10.23294 | 35292 ft | 442 kts | 117° |
| 2026-04-30 22:03 | 47.30832 | 10.30168 | 35274 ft | 458 kts | 134° |
| 2026-04-30 22:04 | 47.25441 | 10.35387 | 35277 ft | 468 kts | 143° |
| 2026-04-30 22:05 | 47.17011 | 10.42760 | 35261 ft | 471 kts | 142° |
| 2026-04-30 22:05 | 47.11419 | 10.47773 | 35290 ft | 471 kts | 142° |
| 2026-04-30 22:06 | 47.05754 | 10.52697 | 35249 ft | 478 kts | 148° |
| 2026-04-30 22:06 | 46.96184 | 10.57276 | 35268 ft | 487 kts | 158° |
| 2026-04-30 22:07 | 46.89694 | 10.60129 | 35254 ft | 487 kts | 157° |
| 2026-04-30 22:07 | 46.83226 | 10.63054 | 35254 ft | 486 kts | 158° |
| 2026-04-30 22:08 | 46.76742 | 10.65960 | 35264 ft | 488 kts | 157° |
| 2026-04-30 22:08 | 46.70337 | 10.69159 | 35270 ft | 482 kts | 148° |
| 2026-04-30 22:09 | 46.64338 | 10.73504 | 35263 ft | 480 kts | 147° |
| 2026-04-30 22:09 | 46.58409 | 10.77883 | 35286 ft | 481 kts | 147° |
| 2026-04-30 22:10 | 46.52408 | 10.82222 | 35290 ft | 482 kts | 148° |
| 2026-04-30 22:10 | 46.46374 | 10.86524 | 35300 ft | 483 kts | 148° |
| 2026-04-30 22:11 | 46.37288 | 10.92970 | 35314 ft | 485 kts | 148° |
| 2026-04-30 22:12 | 46.31220 | 10.97268 | 35318 ft | 486 kts | 148° |
| 2026-04-30 22:12 | 46.26171 | 11.00836 | 35352 ft | 486 kts | 148° |
| 2026-04-30 22:13 | 46.20092 | 11.05122 | 35350 ft | 486 kts | 148° |
| 2026-04-30 22:13 | 46.13996 | 11.09410 | 35338 ft | 486 kts | 148° |
| 2026-04-30 22:14 | 46.07925 | 11.13676 | 35323 ft | 485 kts | 147° |
| 2026-04-30 22:14 | 46.02550 | 11.19203 | 35352 ft | 470 kts | 129° |
| 2026-04-30 22:15 | 45.98491 | 11.26322 | 35345 ft | 461 kts | 120° |
| 2026-04-30 22:15 | 45.94701 | 11.33798 | 35351 ft | 464 kts | 120° |
| 2026-04-30 22:16 | 45.90862 | 11.41290 | 35340 ft | 466 kts | 121° |
| 2026-04-30 22:17 | 45.83091 | 11.56226 | 35354 ft | 469 kts | 121° |
| 2026-04-30 22:17 | 45.77207 | 11.67463 | 35348 ft | 469 kts | 121° |
| 2026-04-30 22:18 | 45.71334 | 11.78640 | 35337 ft | 470 kts | 121° |
| 2026-04-30 22:19 | 45.65420 | 11.89855 | 35350 ft | 471 kts | 122° |
| 2026-04-30 22:20 | 45.59483 | 12.01066 | 35347 ft | 472 kts | 122° |
| 2026-04-30 22:20 | 45.53537 | 12.12249 | 35345 ft | 471 kts | 122° |
| 2026-04-30 22:21 | 45.49567 | 12.19695 | 35351 ft | 472 kts | 122° |
| 2026-04-30 22:21 | 45.45611 | 12.27092 | 35352 ft | 473 kts | 122° |
| 2026-04-30 22:22 | 45.41619 | 12.34539 | 35349 ft | 473 kts | 122° |
| 2026-04-30 22:22 | 45.37612 | 12.41996 | 35346 ft | 474 kts | 122° |
| 2026-04-30 22:23 | 45.33595 | 12.49453 | 35366 ft | 475 kts | 122° |
| 2026-04-30 22:23 | 45.29900 | 12.57179 | 35353 ft | 473 kts | 118° |
| 2026-04-30 22:24 | 45.26354 | 12.65061 | 35334 ft | 473 kts | 118° |
| 2026-04-30 22:24 | 45.22783 | 12.72951 | 35344 ft | 475 kts | 118° |
| 2026-04-30 22:25 | 45.19180 | 12.80810 | 35385 ft | 476 kts | 118° |
| 2026-04-30 22:25 | 45.15565 | 12.88643 | 35361 ft | 479 kts | 119° |
| 2026-04-30 22:26 | 45.10071 | 13.00502 | 35352 ft | 480 kts | 119° |
| 2026-04-30 22:26 | 45.08235 | 13.04457 | 35142 ft | 485 kts | 119° |
| 2026-04-30 22:27 | 45.06378 | 13.08456 | 34643 ft | 484 kts | 118° |
| 2026-04-30 22:27 | 45.04540 | 13.12397 | 33913 ft | 479 kts | 118° |
| 2026-04-30 22:27 | 45.00902 | 13.20192 | 32477 ft | 471 kts | 119° |
| 2026-04-30 22:28 | 44.97304 | 13.27888 | 31079 ft | 469 kts | 120° |
| 2026-04-30 22:28 | 44.95501 | 13.31740 | 30362 ft | 471 kts | 120° |
| 2026-04-30 22:29 | 44.90068 | 13.43306 | 27977 ft | 470 kts | 120° |
| 2026-04-30 22:29 | 44.88269 | 13.47122 | 27439 ft | 465 kts | 120° |
| 2026-04-30 22:30 | 44.81851 | 13.62482 | 25183 ft | 444 kts | 111° |
| 2026-04-30 22:31 | 44.77995 | 13.74170 | 23493 ft | 434 kts | 111° |
| 2026-04-30 22:32 | 44.74153 | 13.85495 | 21837 ft | 421 kts | 112° |
| 2026-04-30 22:32 | 44.71630 | 13.92837 | 20759 ft | 413 kts | 112° |
| 2026-04-30 22:33 | 44.67915 | 14.03608 | 19197 ft | 404 kts | 112° |
| 2026-04-30 22:33 | 44.65488 | 14.10624 | 18122 ft | 399 kts | 112° |
| 2026-04-30 22:34 | 44.61887 | 14.21001 | 16509 ft | 389 kts | 112° |
| 2026-04-30 22:35 | 44.59536 | 14.27757 | 15499 ft | 382 kts | 112° |
| 2026-04-30 22:36 | 44.54923 | 14.40968 | 13455 ft | 372 kts | 113° |
| 2026-04-30 22:36 | 44.53786 | 14.44212 | 12942 ft | 369 kts | 113° |
| 2026-04-30 22:37 | 44.48892 | 14.52369 | 11584 ft | 360 kts | 125° |
| 2026-04-30 22:37 | 44.47566 | 14.55300 | 11167 ft | 353 kts | 116° |
| 2026-04-30 22:37 | 44.45286 | 14.61106 | 10389 ft | 332 kts | 116° |
| 2026-04-30 22:38 | 44.43112 | 14.66591 | 9645 ft | 313 kts | 116° |
| 2026-04-30 22:38 | 44.41038 | 14.71787 | 8897 ft | 299 kts | 116° |
| 2026-04-30 22:39 | 44.40033 | 14.74297 | 8527 ft | 292 kts | 116° |
| 2026-04-30 22:39 | 44.37125 | 14.81544 | 7473 ft | 283 kts | 116° |
| 2026-04-30 22:40 | 44.34263 | 14.88650 | 6487 ft | 271 kts | 116° |
| 2026-04-30 22:41 | 44.31592 | 14.95260 | 5553 ft | 252 kts | 116° |
| 2026-04-30 22:41 | 44.29921 | 14.99386 | 5019 ft | 233 kts | 116° |
| 2026-04-30 22:42 | 44.26913 | 15.06808 | 4027 ft | 205 kts | 115° |
| 2026-04-30 22:43 | 44.25552 | 15.10160 | 3561 ft | 191 kts | 115° |
| 2026-04-30 22:43 | 44.24299 | 15.13244 | 3179 ft | 176 kts | 115° |
| 2026-04-30 22:44 | 44.23126 | 15.16125 | 2819 ft | 169 kts | 115° |
| 2026-04-30 22:45 | 44.20521 | 15.21519 | 2375 ft | 160 kts | 132° |
| 2026-04-30 22:45 | 44.18955 | 15.23636 | 2260 ft | 156 kts | 133° |
| 2026-04-30 22:46 | 44.17415 | 15.25709 | 1926 ft | 152 kts | 134° |
| 2026-04-30 22:47 | 44.14354 | 15.29878 | 1072 ft | 155 kts | 131° |
| 2026-04-30 22:47 | 44.12828 | 15.31965 | 647 ft | 151 kts | 131° |
| 2026-04-30 22:48 | 44.11392 | 15.33924 | 287 ft | 137 kts | 133° |
| 2026-04-30 22:49 | 44.10113 | 15.35636 | 285 ft | 21 kts | 135° |
| 2026-04-30 22:49 | 44.10011 | 15.35691 | 289 ft | 5 kts | 223° |
| 2026-04-30 22:50 | 44.09893 | 15.35537 | 282 ft | 8 kts | 208° |
| 2026-04-30 22:51 | 44.09772 | 15.35539 | 276 ft | 8 kts | 179° |
| 2026-04-30 22:51 | 44.09669 | 15.35540 | 276 ft | 7 kts | 179° |
| 2026-04-30 22:52 | 44.09627 | 15.35520 | 278 ft | 5 kts | 239° |
| 2026-04-30 22:52 | 44.09628 | 15.35482 | 278 ft | 1 kts | 292° |
| 2026-04-30 22:53 | 44.09643 | 15.35464 | 276 ft | 1 kts | 322° |
| 2026-04-30 22:53 | 44.09657 | 15.35449 | 277 ft | 1 kts | 325° |
| 2026-04-30 22:53 | 44.09664 | 15.35443 | 277 ft | 1 kts | 326° |
| 2026-04-30 22:54 | 44.09670 | 15.35437 | 276 ft | 0 kts | 326° |